createdAt,value
2024-01-20T00:00:09.989Z,22.13
2024-01-20T00:01:10.049Z,22.13
2024-01-20T00:02:10.120Z,22.13
2024-01-20T00:03:10.092Z,22.12
2024-01-20T00:04:10.124Z,22.12
2024-01-20T00:05:10.166Z,22.11
2024-01-20T00:06:10.176Z,22.11
2024-01-20T00:07:10.210Z,22.11
2024-01-20T00:08:10.216Z,22.11
2024-01-20T00:09:10.212Z,22.10
2024-01-20T00:10:10.224Z,22.10
2024-01-20T00:11:10.295Z,22.10
2024-01-20T00:12:10.219Z,22.10
2024-01-20T00:13:10.217Z,22.10
2024-01-20T00:14:10.304Z,22.09
2024-01-20T00:15:10.277Z,22.09
2024-01-20T00:16:10.244Z,22.09
2024-01-20T00:17:20.664Z,22.08
2024-01-20T00:18:11.601Z,22.07
2024-01-20T00:19:10.300Z,22.07
2024-01-20T00:20:10.779Z,22.07
2024-01-20T00:21:10.229Z,22.06
2024-01-20T00:22:10.231Z,22.06
2024-01-20T00:23:10.315Z,22.06
2024-01-20T00:24:10.238Z,22.07
2024-01-20T00:25:10.938Z,22.06
2024-01-20T00:26:10.291Z,22.06
2024-01-20T00:27:10.232Z,22.06
2024-01-20T00:28:10.252Z,22.06
2024-01-20T00:29:10.271Z,22.05
2024-01-20T00:30:10.249Z,22.06
2024-01-20T00:31:10.236Z,22.04
2024-01-20T00:32:10.384Z,22.04
2024-01-20T00:33:10.361Z,22.04
2024-01-20T00:34:10.295Z,22.03
2024-01-20T00:35:10.318Z,22.03
2024-01-20T00:36:10.272Z,22.03
2024-01-20T00:37:10.238Z,22.02
2024-01-20T00:38:10.333Z,22.04
2024-01-20T00:39:10.251Z,22.03
2024-01-20T00:40:10.277Z,22.02
2024-01-20T00:41:10.307Z,22.02
2024-01-20T00:42:10.332Z,22.02
2024-01-20T00:43:10.352Z,22.02
2024-01-20T00:44:10.419Z,22.02
2024-01-20T00:45:10.424Z,22.02
2024-01-20T00:46:10.437Z,22.01
2024-01-20T00:47:10.604Z,22.01
2024-01-20T00:48:10.549Z,22.01
2024-01-20T00:49:10.570Z,22.00
2024-01-20T00:50:10.562Z,22.00
2024-01-20T00:51:10.571Z,22.00
2024-01-20T00:52:10.602Z,22.00
2024-01-20T00:53:10.666Z,22.00
2024-01-20T00:54:10.664Z,22.00
2024-01-20T00:55:10.686Z,21.99
2024-01-20T00:56:10.791Z,21.98
2024-01-20T00:57:10.781Z,21.98
2024-01-20T00:58:10.801Z,21.98
2024-01-20T00:59:10.904Z,21.98
2024-01-20T01:00:10.859Z,21.97
2024-01-20T01:01:10.900Z,21.98
2024-01-20T01:02:11.875Z,21.97
2024-01-20T01:03:10.983Z,21.97
2024-01-20T01:04:10.982Z,21.97
2024-01-20T01:05:11.035Z,21.97
2024-01-20T01:06:11.040Z,21.96
2024-01-20T01:07:11.048Z,21.96
2024-01-20T01:08:11.138Z,21.96
2024-01-20T01:09:11.187Z,21.96
2024-01-20T01:10:11.149Z,21.95
2024-01-20T01:11:11.200Z,21.95
2024-01-20T01:12:11.223Z,21.95
2024-01-20T01:13:11.290Z,21.94
2024-01-20T01:14:11.354Z,21.94
2024-01-20T01:15:11.282Z,21.94
2024-01-20T01:16:11.332Z,21.93
2024-01-20T01:17:11.409Z,21.93
2024-01-20T01:18:11.417Z,21.94
2024-01-20T01:19:11.407Z,21.93
2024-01-20T01:20:11.479Z,21.93
2024-01-20T01:21:11.466Z,21.92
2024-01-20T01:22:11.523Z,21.92
2024-01-20T01:23:11.566Z,21.93
2024-01-20T01:24:11.595Z,21.92
2024-01-20T01:25:11.620Z,21.92
2024-01-20T01:26:11.744Z,21.91
2024-01-20T01:27:11.712Z,21.91
2024-01-20T01:28:11.712Z,21.91
2024-01-20T01:29:11.734Z,21.90
2024-01-20T01:30:11.808Z,21.91
2024-01-20T01:31:11.795Z,21.91
2024-01-20T01:32:11.928Z,21.90
2024-01-20T01:33:11.951Z,21.90
2024-01-20T01:34:11.943Z,21.90
2024-01-20T01:35:11.977Z,21.90
2024-01-20T01:36:11.962Z,21.90
2024-01-20T01:37:12.004Z,21.90
2024-01-20T01:38:12.157Z,21.90
2024-01-20T01:39:12.053Z,21.89
2024-01-20T01:40:12.091Z,21.89
2024-01-20T01:41:12.201Z,21.88
2024-01-20T01:42:12.160Z,21.88
2024-01-20T01:43:12.189Z,21.89
2024-01-20T01:44:12.284Z,21.88
2024-01-20T01:45:12.264Z,21.88
2024-01-20T01:46:12.304Z,21.87
2024-01-20T01:47:12.392Z,21.87
2024-01-20T01:48:12.429Z,21.88
2024-01-20T01:49:12.402Z,21.87
2024-01-20T01:50:12.459Z,21.87
2024-01-20T01:51:12.467Z,21.87
2024-01-20T01:52:12.516Z,21.86
2024-01-20T01:53:12.533Z,21.86
2024-01-20T01:54:12.588Z,21.85
2024-01-20T01:55:12.610Z,21.85
2024-01-20T01:56:12.661Z,21.85
2024-01-20T01:57:12.724Z,21.85
2024-01-20T01:58:13.385Z,21.84
2024-01-20T01:59:12.777Z,21.84
2024-01-20T02:00:12.841Z,21.85
2024-01-20T02:01:12.898Z,21.84
2024-01-20T02:02:12.881Z,21.84
2024-01-20T02:03:13.003Z,21.84
2024-01-20T02:04:13.034Z,21.83
2024-01-20T02:05:12.991Z,21.83
2024-01-20T02:06:13.093Z,21.82
2024-01-20T02:07:13.163Z,21.83
2024-01-20T02:08:13.103Z,21.83
2024-01-20T02:09:13.136Z,21.83
2024-01-20T02:10:13.167Z,21.82
2024-01-20T02:11:13.198Z,21.82
2024-01-20T02:12:13.254Z,21.81
2024-01-20T02:13:13.279Z,21.81
2024-01-20T02:14:13.339Z,21.81
2024-01-20T02:15:15.064Z,21.81
2024-01-20T02:16:13.506Z,21.81
2024-01-20T02:17:13.534Z,21.80
2024-01-20T02:18:13.674Z,21.80
2024-01-20T02:19:13.680Z,21.80
2024-01-20T02:20:13.688Z,21.80
2024-01-20T02:21:13.717Z,21.80
2024-01-20T02:22:13.789Z,21.80
2024-01-20T02:23:13.808Z,21.79
2024-01-20T02:24:13.898Z,21.79
2024-01-20T02:25:13.892Z,21.79
2024-01-20T02:26:13.929Z,21.79
2024-01-20T02:27:13.972Z,21.78
2024-01-20T02:28:14.037Z,21.78
2024-01-20T02:29:14.045Z,21.79
2024-01-20T02:30:14.111Z,21.78
2024-01-20T02:31:14.124Z,21.78
2024-01-20T02:32:14.176Z,21.77
2024-01-20T02:33:14.334Z,21.77
2024-01-20T02:34:14.381Z,21.77
2024-01-20T02:35:14.261Z,21.77
2024-01-20T02:36:14.395Z,21.76
2024-01-20T02:37:14.362Z,21.76
2024-01-20T02:38:14.419Z,21.76
2024-01-20T02:39:14.477Z,21.76
2024-01-20T02:40:14.515Z,21.76
2024-01-20T02:41:14.540Z,21.75
2024-01-20T02:42:14.600Z,21.76
2024-01-20T02:43:14.621Z,21.76
2024-01-20T02:44:14.687Z,21.75
2024-01-20T02:45:14.737Z,21.75
2024-01-20T02:46:14.759Z,21.75
2024-01-20T02:47:14.808Z,21.74
2024-01-20T02:48:17.273Z,21.74
2024-01-20T02:49:14.923Z,21.74
2024-01-20T02:50:14.853Z,21.73
2024-01-20T02:51:14.877Z,21.73
2024-01-20T02:52:14.884Z,21.73
2024-01-20T02:53:14.911Z,21.73
2024-01-20T02:54:14.933Z,21.73
2024-01-20T02:55:14.847Z,21.72
2024-01-20T02:56:14.872Z,21.72
2024-01-20T02:57:14.877Z,21.71
2024-01-20T02:58:14.874Z,21.72
2024-01-20T02:59:14.858Z,21.71
2024-01-20T03:00:14.942Z,21.70
2024-01-20T03:01:14.915Z,21.70
2024-01-20T03:02:14.861Z,21.71
2024-01-20T03:03:14.961Z,21.70
2024-01-20T03:04:15.051Z,21.70
2024-01-20T03:05:14.898Z,21.70
2024-01-20T03:06:14.878Z,21.69
2024-01-20T03:07:14.885Z,21.69
2024-01-20T03:08:14.867Z,21.68
2024-01-20T03:09:14.928Z,21.69
2024-01-20T03:10:14.896Z,21.68
2024-01-20T03:11:14.881Z,21.69
2024-01-20T03:12:14.927Z,21.68
2024-01-20T03:13:14.882Z,21.68
2024-01-20T03:14:14.879Z,21.68
2024-01-20T03:15:14.985Z,21.67
2024-01-20T03:16:14.889Z,21.67
2024-01-20T03:17:14.893Z,21.67
2024-01-20T03:18:14.946Z,21.66
2024-01-20T03:19:14.941Z,21.66
2024-01-20T03:20:14.900Z,21.66
2024-01-20T03:21:14.924Z,21.66
2024-01-20T03:22:14.943Z,21.65
2024-01-20T03:23:14.990Z,21.65
2024-01-20T03:24:15.073Z,21.65
2024-01-20T03:25:15.109Z,21.65
2024-01-20T03:26:15.162Z,21.65
2024-01-20T03:27:15.272Z,21.65
2024-01-20T03:28:15.256Z,21.65
2024-01-20T03:29:15.336Z,21.65
2024-01-20T03:30:15.356Z,21.64
2024-01-20T03:31:15.415Z,21.65
2024-01-20T03:32:15.449Z,21.64
2024-01-20T03:33:15.624Z,21.64
2024-01-20T03:34:15.623Z,21.64
2024-01-20T03:35:15.588Z,21.64
2024-01-20T03:36:15.662Z,21.64
2024-01-20T03:37:15.696Z,21.63
2024-01-20T03:38:15.734Z,21.64
2024-01-20T03:39:15.830Z,21.63
2024-01-20T03:40:15.834Z,21.63
2024-01-20T03:41:15.891Z,21.63
2024-01-20T03:42:16.005Z,21.63
2024-01-20T03:43:15.997Z,21.63
2024-01-20T03:44:16.044Z,21.62
2024-01-20T03:45:16.142Z,21.62
2024-01-20T03:46:16.133Z,21.62
2024-01-20T03:47:16.198Z,21.62
2024-01-20T03:48:16.372Z,21.61
2024-01-20T03:49:16.490Z,21.61
2024-01-20T03:50:16.443Z,21.61
2024-01-20T03:51:16.462Z,21.61
2024-01-20T03:52:16.470Z,21.60
2024-01-20T03:53:16.516Z,21.60
2024-01-20T03:54:16.567Z,21.60
2024-01-20T03:55:16.617Z,21.59
2024-01-20T03:56:16.665Z,21.60
2024-01-20T03:57:18.626Z,21.60
2024-01-20T03:58:16.761Z,21.59
2024-01-20T03:59:16.829Z,21.59
2024-01-20T04:00:16.901Z,21.59
2024-01-20T04:01:16.978Z,21.60
2024-01-20T04:02:16.991Z,21.58
2024-01-20T04:03:17.126Z,21.59
2024-01-20T04:04:17.135Z,21.59
2024-01-20T04:05:17.173Z,21.58
2024-01-20T04:06:17.242Z,21.58
2024-01-20T04:07:17.291Z,21.58
2024-01-20T04:08:17.331Z,21.58
2024-01-20T04:09:17.432Z,21.58
2024-01-20T04:10:17.432Z,21.57
2024-01-20T04:11:18.775Z,21.57
2024-01-20T04:12:17.549Z,21.57
2024-01-20T04:13:17.598Z,21.57
2024-01-20T04:14:17.644Z,21.56
2024-01-20T04:15:17.740Z,21.56
2024-01-20T04:16:18.444Z,21.56
2024-01-20T04:17:17.816Z,21.55
2024-01-20T04:18:17.953Z,21.55
2024-01-20T04:19:18.057Z,21.55
2024-01-20T04:20:17.985Z,21.55
2024-01-20T04:21:18.065Z,21.55
2024-01-20T04:22:18.104Z,21.54
2024-01-20T04:23:18.164Z,21.55
2024-01-20T04:24:18.220Z,21.54
2024-01-20T04:25:18.253Z,21.54
2024-01-20T04:26:18.306Z,21.54
2024-01-20T04:27:18.417Z,21.53
2024-01-20T04:28:18.425Z,21.53
2024-01-20T04:29:18.499Z,21.53
2024-01-20T04:30:18.632Z,21.53
2024-01-20T04:31:18.612Z,21.53
2024-01-20T04:32:18.653Z,21.53
2024-01-20T04:33:18.813Z,21.52
2024-01-20T04:34:18.828Z,21.53
2024-01-20T04:35:26.594Z,21.50
2024-01-20T04:36:26.619Z,21.51
2024-01-20T04:37:26.576Z,21.51
2024-01-20T04:38:26.588Z,21.50
2024-01-20T04:39:26.626Z,21.50
2024-01-20T04:40:26.592Z,21.50
2024-01-20T04:41:26.594Z,21.50
2024-01-20T04:42:26.621Z,21.49
2024-01-20T04:43:26.582Z,21.49
2024-01-20T04:44:26.597Z,21.49
2024-01-20T04:45:26.618Z,21.49
2024-01-20T04:46:26.657Z,21.49
2024-01-20T04:47:26.638Z,21.49
2024-01-20T04:48:26.721Z,21.49
2024-01-20T04:49:26.665Z,21.49
2024-01-20T04:50:26.659Z,21.48
2024-01-20T04:51:26.741Z,21.47
2024-01-20T04:52:26.773Z,21.48
2024-01-20T04:53:26.805Z,21.48
2024-01-20T04:54:26.894Z,21.48
2024-01-20T04:55:26.887Z,21.48
2024-01-20T04:56:26.947Z,21.47
2024-01-20T04:57:27.036Z,21.47
2024-01-20T04:58:27.048Z,21.47
2024-01-20T04:59:27.093Z,21.46
2024-01-20T05:00:27.177Z,21.46
2024-01-20T05:01:27.216Z,21.46
2024-01-20T05:02:27.250Z,21.46
2024-01-20T05:03:27.355Z,21.46
2024-01-20T05:04:27.420Z,21.45
2024-01-20T05:05:27.401Z,21.45
2024-01-20T05:06:27.560Z,21.45
2024-01-20T05:07:27.514Z,21.44
2024-01-20T05:08:27.568Z,21.44
2024-01-20T05:09:27.665Z,21.44
2024-01-20T05:10:27.674Z,21.44
2024-01-20T05:11:27.729Z,21.44
2024-01-20T05:12:27.807Z,21.44
2024-01-20T05:13:27.836Z,21.44
2024-01-20T05:14:27.891Z,21.43
2024-01-20T05:15:27.982Z,21.43
2024-01-20T05:16:27.999Z,21.43
2024-01-20T05:17:28.092Z,21.43
2024-01-20T05:18:28.226Z,21.43
2024-01-20T05:19:28.341Z,21.43
2024-01-20T05:20:28.236Z,21.43
2024-01-20T05:21:28.318Z,21.42
2024-01-20T05:22:28.332Z,21.43
2024-01-20T05:23:28.381Z,21.42
2024-01-20T05:24:28.496Z,21.42
2024-01-20T05:25:28.491Z,21.42
2024-01-20T05:26:28.540Z,21.42
2024-01-20T05:27:28.669Z,21.41
2024-01-20T05:28:28.649Z,21.41
2024-01-20T05:29:28.681Z,21.41
2024-01-20T05:30:28.782Z,21.41
2024-01-20T05:31:28.792Z,21.40
2024-01-20T05:32:28.900Z,21.39
2024-01-20T05:33:28.981Z,21.40
2024-01-20T05:34:29.063Z,21.39
2024-01-20T05:35:29.029Z,21.39
2024-01-20T05:36:29.196Z,21.39
2024-01-20T05:37:29.125Z,21.40
2024-01-20T05:38:29.185Z,21.39
2024-01-20T05:39:29.363Z,21.38
2024-01-20T05:40:29.269Z,21.38
2024-01-20T05:41:29.326Z,21.38
2024-01-20T05:42:29.547Z,21.38
2024-01-20T05:43:29.440Z,21.38
2024-01-20T05:44:29.520Z,21.37
2024-01-20T05:45:29.598Z,21.37
2024-01-20T05:46:29.596Z,21.37
2024-01-20T05:47:29.671Z,21.37
2024-01-20T05:48:29.787Z,21.36
2024-01-20T05:49:29.852Z,21.36
2024-01-20T05:50:29.833Z,21.35
2024-01-20T05:51:29.912Z,21.35
2024-01-20T05:52:29.943Z,21.35
2024-01-20T05:53:30.004Z,21.35
2024-01-20T05:54:30.095Z,21.34
2024-01-20T05:55:30.123Z,21.34
2024-01-20T05:56:30.207Z,21.34
2024-01-20T05:57:30.262Z,21.34
2024-01-20T05:58:30.307Z,21.33
2024-01-20T05:59:30.361Z,21.34
2024-01-20T06:00:30.480Z,21.34
2024-01-20T06:01:30.498Z,21.33
2024-01-20T06:02:30.548Z,21.32
2024-01-20T06:03:30.655Z,21.32
2024-01-20T06:04:30.772Z,21.32
2024-01-20T06:05:30.713Z,21.32
2024-01-20T06:06:30.840Z,21.31
2024-01-20T06:07:30.823Z,21.31
2024-01-20T06:08:30.894Z,21.31
2024-01-20T06:09:30.998Z,21.32
2024-01-20T06:10:31.043Z,21.31
2024-01-20T06:11:31.047Z,21.31
2024-01-20T06:12:31.207Z,21.31
2024-01-20T06:13:31.169Z,21.30
2024-01-20T06:14:31.251Z,21.30
2024-01-20T06:15:31.395Z,21.30
2024-01-20T06:16:31.357Z,21.30
2024-01-20T06:17:31.429Z,21.30
2024-01-20T06:18:31.502Z,21.29
2024-01-20T06:19:31.562Z,21.29
2024-01-20T06:20:31.610Z,21.29
2024-01-20T06:21:31.685Z,21.29
2024-01-20T06:22:31.687Z,21.29
2024-01-20T06:23:31.742Z,21.29
2024-01-20T06:24:31.960Z,21.28
2024-01-20T06:25:31.858Z,21.28
2024-01-20T06:26:31.920Z,21.28
2024-01-20T06:27:32.026Z,21.27
2024-01-20T06:28:32.031Z,21.27
2024-01-20T06:29:32.090Z,21.26
2024-01-20T06:30:32.244Z,21.27
2024-01-20T06:31:32.205Z,21.27
2024-01-20T06:32:32.335Z,21.27
2024-01-20T06:33:32.441Z,21.26
2024-01-20T06:34:32.454Z,21.26
2024-01-20T06:35:32.439Z,21.26
2024-01-20T06:36:32.588Z,21.26
2024-01-20T06:37:32.569Z,21.26
2024-01-20T06:38:32.612Z,21.26
2024-01-20T06:39:32.706Z,21.26
2024-01-20T06:40:32.747Z,21.26
2024-01-20T06:41:32.785Z,21.25
2024-01-20T06:42:32.877Z,21.25
2024-01-20T06:43:32.896Z,21.25
2024-01-20T06:44:33.301Z,21.24
2024-01-20T06:45:33.005Z,21.24
2024-01-20T06:46:33.071Z,21.24
2024-01-20T06:47:33.156Z,21.24
2024-01-20T06:48:33.359Z,21.24
2024-01-20T06:49:33.439Z,21.24
2024-01-20T06:50:33.320Z,21.24
2024-01-20T06:51:33.413Z,21.24
2024-01-20T06:52:33.445Z,21.23
2024-01-20T06:53:33.481Z,21.23
2024-01-20T06:54:33.635Z,21.23
2024-01-20T06:55:33.604Z,21.23
2024-01-20T06:56:33.666Z,21.21
2024-01-20T06:57:33.826Z,21.22
2024-01-20T06:58:33.767Z,21.22
2024-01-20T06:59:33.801Z,21.21
2024-01-20T07:00:33.995Z,21.21
2024-01-20T07:01:33.917Z,21.21
2024-01-20T07:02:33.970Z,21.21
2024-01-20T07:03:34.117Z,21.21
2024-01-20T07:04:34.123Z,21.21
2024-01-20T07:05:34.206Z,21.20
2024-01-20T07:06:34.262Z,21.20
2024-01-20T07:07:34.286Z,21.20
2024-01-20T07:08:34.350Z,21.19
2024-01-20T07:09:34.439Z,21.20
2024-01-20T07:10:34.453Z,21.19
2024-01-20T07:11:34.510Z,21.20
2024-01-20T07:12:34.661Z,21.19
2024-01-20T07:13:34.602Z,21.19
2024-01-20T07:14:34.669Z,21.19
2024-01-20T07:15:34.706Z,21.19
2024-01-20T07:16:34.760Z,21.20
2024-01-20T07:17:34.819Z,21.20
2024-01-20T07:18:34.921Z,21.19
2024-01-20T07:19:34.958Z,21.19
2024-01-20T07:20:34.998Z,21.18
2024-01-20T07:21:35.092Z,21.18
2024-01-20T07:22:35.085Z,21.18
2024-01-20T07:23:35.165Z,21.18
2024-01-20T07:24:35.286Z,21.18
2024-01-20T07:25:35.257Z,21.17
2024-01-20T07:26:35.302Z,21.17
2024-01-20T07:27:35.400Z,21.17
2024-01-20T07:28:35.437Z,21.17
2024-01-20T07:29:35.496Z,21.17
2024-01-20T07:30:35.854Z,21.16
2024-01-20T07:31:35.583Z,21.15
2024-01-20T07:32:35.666Z,21.15
2024-01-20T07:33:35.800Z,21.15
2024-01-20T07:34:35.810Z,21.16
2024-01-20T07:35:35.810Z,21.14
2024-01-20T07:36:35.911Z,21.15
2024-01-20T07:37:35.895Z,21.15
2024-01-20T07:38:35.962Z,21.14
2024-01-20T07:39:36.043Z,21.14
2024-01-20T07:40:36.061Z,21.14
2024-01-20T07:41:36.099Z,21.14
2024-01-20T07:42:36.342Z,21.13
2024-01-20T07:43:36.223Z,21.13
2024-01-20T07:44:36.280Z,21.13
2024-01-20T07:45:36.365Z,21.13
2024-01-20T07:46:36.373Z,21.13
2024-01-20T07:47:36.442Z,21.12
2024-01-20T07:48:36.607Z,21.12
2024-01-20T07:49:36.626Z,21.12
2024-01-20T07:50:36.580Z,21.12
2024-01-20T07:51:36.733Z,21.12
2024-01-20T07:52:40.079Z,21.11
2024-01-20T07:53:36.691Z,21.11
2024-01-20T07:54:36.863Z,21.10
2024-01-20T07:55:36.685Z,21.11
2024-01-20T07:56:36.685Z,21.11
2024-01-20T07:57:36.789Z,21.10
2024-01-20T07:58:36.698Z,21.09
2024-01-20T07:59:36.686Z,21.08
2024-01-20T08:00:36.882Z,21.09
2024-01-20T08:01:36.737Z,21.09
2024-01-20T08:02:36.697Z,21.08
2024-01-20T08:03:36.802Z,21.09
2024-01-20T08:04:36.883Z,21.09
2024-01-20T08:05:36.696Z,21.08
2024-01-20T08:06:36.779Z,21.09
2024-01-20T08:07:36.699Z,21.08
2024-01-20T08:08:36.719Z,21.07
2024-01-20T08:09:36.787Z,21.07
2024-01-20T08:10:36.714Z,21.07
2024-01-20T08:11:36.688Z,21.06
2024-01-20T08:12:36.843Z,21.07
2024-01-20T08:13:36.701Z,21.06
2024-01-20T08:14:36.708Z,21.06
2024-01-20T08:15:36.857Z,21.06
2024-01-20T08:16:36.700Z,21.06
2024-01-20T08:17:36.724Z,21.07
2024-01-20T08:18:36.865Z,21.06
2024-01-20T08:19:36.766Z,21.05
2024-01-20T08:20:36.716Z,21.05
2024-01-20T08:21:36.743Z,21.05
2024-01-20T08:22:36.724Z,21.05
2024-01-20T08:23:36.716Z,21.05
2024-01-20T08:24:36.774Z,21.05
2024-01-20T08:25:36.780Z,21.05
2024-01-20T08:26:36.841Z,21.04
2024-01-20T08:27:36.964Z,21.04
2024-01-20T08:28:36.955Z,21.04
2024-01-20T08:29:37.008Z,21.03
2024-01-20T08:30:37.131Z,21.03
2024-01-20T08:31:37.084Z,21.03
2024-01-20T08:32:37.197Z,21.03
2024-01-20T08:33:37.295Z,21.03
2024-01-20T08:34:38.520Z,21.03
2024-01-20T08:35:37.265Z,21.03
2024-01-20T08:36:37.334Z,21.03
2024-01-20T08:37:37.327Z,21.02
2024-01-20T08:38:37.387Z,21.02
2024-01-20T08:39:37.456Z,21.02
2024-01-20T08:40:37.457Z,21.02
2024-01-20T08:41:37.488Z,21.02
2024-01-20T08:42:37.572Z,21.01
2024-01-20T08:43:37.534Z,21.01
2024-01-20T08:44:37.571Z,21.01
2024-01-20T08:45:37.710Z,21.00
2024-01-20T08:46:37.742Z,21.00
2024-01-20T08:47:37.672Z,21.00
2024-01-20T08:48:37.751Z,21.00
2024-01-20T08:49:37.725Z,20.99
2024-01-20T08:50:37.794Z,21.00
2024-01-20T08:51:37.811Z,21.00
2024-01-20T08:52:37.842Z,20.99
2024-01-20T08:53:37.881Z,20.99
2024-01-20T08:54:38.031Z,20.99
2024-01-20T08:55:37.980Z,20.99
2024-01-20T08:56:38.055Z,20.99
2024-01-20T08:57:38.100Z,20.99
2024-01-20T08:58:38.110Z,20.99
2024-01-20T08:59:38.183Z,20.98
2024-01-20T09:00:38.293Z,20.99
2024-01-20T09:01:38.238Z,20.98
2024-01-20T09:02:38.283Z,20.98
2024-01-20T09:03:43.384Z,20.97
2024-01-20T09:04:38.321Z,20.97
2024-01-20T09:05:39.564Z,20.97
2024-01-20T09:06:38.454Z,20.97
2024-01-20T09:07:46.222Z,20.95
2024-01-20T09:08:46.213Z,20.95
2024-01-20T09:09:46.208Z,20.95
2024-01-20T09:10:46.220Z,20.95
2024-01-20T09:11:46.216Z,20.95
2024-01-20T09:12:46.227Z,20.95
2024-01-20T09:13:46.224Z,20.96
2024-01-20T09:14:46.243Z,20.95
2024-01-20T09:15:46.295Z,20.94
2024-01-20T09:16:46.234Z,20.95
2024-01-20T09:17:46.241Z,20.94
2024-01-20T09:18:46.407Z,20.94
2024-01-20T09:19:46.364Z,20.94
2024-01-20T09:20:46.250Z,20.94
2024-01-20T09:21:46.222Z,20.93
2024-01-20T09:22:46.229Z,20.93
2024-01-20T09:23:46.227Z,20.93
2024-01-20T09:24:46.275Z,20.93
2024-01-20T09:25:46.232Z,20.93
2024-01-20T09:26:46.239Z,20.93
2024-01-20T09:27:46.298Z,20.93
2024-01-20T09:28:46.331Z,20.93
2024-01-20T09:29:46.229Z,20.93
2024-01-20T09:30:46.287Z,20.93
2024-01-20T09:31:46.237Z,20.92
2024-01-20T09:32:46.298Z,20.93
2024-01-20T09:33:46.326Z,20.92
2024-01-20T09:34:46.287Z,20.92
2024-01-20T09:35:46.236Z,20.92
2024-01-20T09:36:46.393Z,20.92
2024-01-20T09:37:46.245Z,20.91
2024-01-20T09:38:46.264Z,20.91
2024-01-20T09:39:46.287Z,20.92
2024-01-20T09:40:46.258Z,20.92
2024-01-20T09:41:46.256Z,20.91
2024-01-20T09:42:46.282Z,20.91
2024-01-20T09:43:46.260Z,20.90
2024-01-20T09:44:46.250Z,20.91
2024-01-20T09:45:46.319Z,20.90
2024-01-20T09:46:46.262Z,20.90
2024-01-20T09:47:46.322Z,20.90
2024-01-20T09:48:46.544Z,20.90
2024-01-20T09:49:46.346Z,20.90
2024-01-20T09:50:46.273Z,20.89
2024-01-20T09:51:46.280Z,20.90
2024-01-20T09:52:46.300Z,20.90
2024-01-20T09:53:56.514Z,20.89
2024-01-20T09:54:46.383Z,20.87
2024-01-20T09:55:46.364Z,20.88
2024-01-20T09:56:46.339Z,20.88
2024-01-20T09:57:46.328Z,20.87
2024-01-20T09:58:46.346Z,20.87
2024-01-20T09:59:46.342Z,20.88
2024-01-20T10:00:46.448Z,20.89
2024-01-20T10:01:46.459Z,20.88
2024-01-20T10:02:46.386Z,20.87
2024-01-20T10:03:46.397Z,20.87
2024-01-20T10:04:46.459Z,20.87
2024-01-20T10:05:46.446Z,20.88
2024-01-20T10:06:46.380Z,20.87
2024-01-20T10:07:46.354Z,20.87
2024-01-20T10:08:46.362Z,20.87
2024-01-20T10:09:46.351Z,20.87
2024-01-20T10:10:46.350Z,20.87
2024-01-20T10:11:46.349Z,20.87
2024-01-20T10:12:46.363Z,20.87
2024-01-20T10:13:46.356Z,20.87
2024-01-20T10:14:46.384Z,20.86
2024-01-20T10:15:46.455Z,20.87
2024-01-20T10:16:46.375Z,20.87
2024-01-20T10:17:46.379Z,20.86
2024-01-20T10:18:46.384Z,20.87
2024-01-20T10:19:46.415Z,20.87
2024-01-20T10:20:48.766Z,20.87
2024-01-20T10:21:46.402Z,20.87
2024-01-20T10:22:46.390Z,20.87
2024-01-20T10:23:46.368Z,20.86
2024-01-20T10:24:46.394Z,20.87
2024-01-20T10:25:46.377Z,20.86
2024-01-20T10:26:46.381Z,20.87
2024-01-20T10:27:46.418Z,20.87
2024-01-20T10:28:51.421Z,20.86
2024-01-20T10:29:46.392Z,20.86
2024-01-20T10:30:46.655Z,20.86
2024-01-20T10:31:46.394Z,20.86
2024-01-20T10:32:57.153Z,20.86
2024-01-20T10:33:57.651Z,20.86
2024-01-20T10:34:46.672Z,20.84
2024-01-20T10:35:46.403Z,20.86
2024-01-20T10:36:46.407Z,20.86
2024-01-20T10:37:46.435Z,20.85
2024-01-20T10:38:46.471Z,20.86
2024-01-20T10:39:46.493Z,20.86
2024-01-20T10:40:46.669Z,20.86
2024-01-20T10:41:46.543Z,20.86
2024-01-20T10:42:46.582Z,20.85
2024-01-20T10:43:46.603Z,20.85
2024-01-20T10:44:46.636Z,20.85
2024-01-20T10:45:46.666Z,20.86
2024-01-20T10:46:46.726Z,20.85
2024-01-20T10:47:46.756Z,20.86
2024-01-20T10:48:46.858Z,20.87
2024-01-20T10:49:46.970Z,20.86
2024-01-20T10:50:46.831Z,20.86
2024-01-20T10:51:46.936Z,20.86
2024-01-20T10:52:46.899Z,20.86
2024-01-20T10:53:46.929Z,20.86
2024-01-20T10:54:47.024Z,20.87
2024-01-20T10:55:46.993Z,20.88
2024-01-20T10:56:47.039Z,20.87
2024-01-20T10:57:47.041Z,20.87
2024-01-20T10:58:47.069Z,20.88
2024-01-20T10:59:47.114Z,20.88
2024-01-20T11:00:47.217Z,20.88
2024-01-20T11:01:47.161Z,20.88
2024-01-20T11:02:47.262Z,20.89
2024-01-20T11:03:47.328Z,20.89
2024-01-20T11:04:47.313Z,20.88
2024-01-20T11:05:47.310Z,20.88
2024-01-20T11:06:47.339Z,20.89
2024-01-20T11:07:47.351Z,20.90
2024-01-20T11:08:47.394Z,20.90
2024-01-20T11:09:47.432Z,20.90
2024-01-20T11:10:47.465Z,20.90
2024-01-20T11:11:47.484Z,20.90
2024-01-20T11:12:47.526Z,20.90
2024-01-20T11:13:47.537Z,20.90
2024-01-20T11:14:47.589Z,20.91
2024-01-20T11:15:47.616Z,20.91
2024-01-20T11:16:47.658Z,20.92
2024-01-20T11:17:47.731Z,20.91
2024-01-20T11:18:47.817Z,20.92
2024-01-20T11:19:47.833Z,20.92
2024-01-20T11:20:47.805Z,20.92
2024-01-20T11:21:47.872Z,20.92
2024-01-20T11:22:47.923Z,20.93
2024-01-20T11:23:47.943Z,20.94
2024-01-20T11:24:48.113Z,20.94
2024-01-20T11:25:48.102Z,20.94
2024-01-20T11:26:48.108Z,20.95
2024-01-20T11:27:48.141Z,20.94
2024-01-20T11:28:48.164Z,20.95
2024-01-20T11:29:48.213Z,20.95
2024-01-20T11:30:48.379Z,20.96
2024-01-20T11:31:48.309Z,20.96
2024-01-20T11:32:48.375Z,20.96
2024-01-20T11:33:48.516Z,20.97
2024-01-20T11:34:48.540Z,20.97
2024-01-20T11:35:48.476Z,20.97
2024-01-20T11:36:48.544Z,20.97
2024-01-20T11:37:48.556Z,20.98
2024-01-20T11:38:48.605Z,20.97
2024-01-20T11:39:48.683Z,20.98
2024-01-20T11:40:48.705Z,20.98
2024-01-20T11:41:48.762Z,20.99
2024-01-20T11:42:48.842Z,20.99
2024-01-20T11:43:48.863Z,20.99
2024-01-20T11:44:48.922Z,21.00
2024-01-20T11:45:49.038Z,21.00
2024-01-20T11:46:48.988Z,21.00
2024-01-20T11:47:49.077Z,21.00
2024-01-20T11:48:49.405Z,21.01
2024-01-20T11:49:49.239Z,21.01
2024-01-20T11:50:49.191Z,21.02
2024-01-20T11:51:49.254Z,21.01
2024-01-20T11:52:49.285Z,21.02
2024-01-20T11:53:49.334Z,21.03
2024-01-20T11:54:49.409Z,21.03
2024-01-20T11:55:49.444Z,21.03
2024-01-20T11:56:49.489Z,21.04
2024-01-20T11:57:49.631Z,21.04
2024-01-20T11:58:49.663Z,21.05
2024-01-20T11:59:49.677Z,21.05
2024-01-20T12:00:49.800Z,21.04
2024-01-20T12:01:49.914Z,21.05
2024-01-20T12:02:49.809Z,21.05
2024-01-20T12:03:49.992Z,21.06
2024-01-20T12:04:49.976Z,21.06
2024-01-20T12:05:50.040Z,21.06
2024-01-20T12:06:50.105Z,21.07
2024-01-20T12:07:50.120Z,21.07
2024-01-20T12:08:50.156Z,21.08
2024-01-20T12:09:50.237Z,21.08
2024-01-20T12:10:50.271Z,21.08
2024-01-20T12:11:50.351Z,21.09
2024-01-20T12:12:50.388Z,21.09
2024-01-20T12:13:50.474Z,21.08
2024-01-20T12:14:50.512Z,21.10
2024-01-20T12:15:50.608Z,21.09
2024-01-20T12:16:50.650Z,21.10
2024-01-20T12:17:50.802Z,21.11
2024-01-20T12:18:50.904Z,21.10
2024-01-20T12:19:50.905Z,21.11
2024-01-20T12:20:50.848Z,21.12
2024-01-20T12:21:50.916Z,21.11
2024-01-20T12:22:50.963Z,21.12
2024-01-20T12:23:51.017Z,21.12
2024-01-20T12:24:51.079Z,21.13
2024-01-20T12:25:51.141Z,21.13
2024-01-20T12:26:51.205Z,21.13
2024-01-20T12:27:51.249Z,21.14
2024-01-20T12:28:51.282Z,21.14
2024-01-20T12:29:51.357Z,21.15
2024-01-20T12:30:51.406Z,21.15
2024-01-20T12:31:51.473Z,21.15
2024-01-20T12:32:51.550Z,21.15
2024-01-20T12:33:51.683Z,21.15
2024-01-20T12:34:51.663Z,21.16
2024-01-20T12:35:51.704Z,21.16
2024-01-20T12:36:51.737Z,21.17
2024-01-20T12:37:51.813Z,21.17
2024-01-20T12:38:51.849Z,21.17
2024-01-20T12:39:51.898Z,21.19
2024-01-20T12:40:51.938Z,21.18
2024-01-20T12:41:52.011Z,21.18
2024-01-20T12:42:52.053Z,21.19
2024-01-20T12:43:52.102Z,21.20
2024-01-20T12:44:52.105Z,21.19
2024-01-20T12:45:52.137Z,21.20
2024-01-20T12:46:52.149Z,21.21
2024-01-20T12:47:52.182Z,21.22
2024-01-20T12:48:52.391Z,21.22
2024-01-20T12:49:52.338Z,21.23
2024-01-20T12:50:52.329Z,21.22
2024-01-20T12:51:52.497Z,21.23
2024-01-20T12:52:52.544Z,21.24